Lobatos, Colorado
Current Conditions -  °F | °C
As of 9:52 PM on Thursday 27 Nov 2014 (Local Time) from KALS Reporting Station
Clear Clear  
Wind Chill:   Ceiling: Unl
Heat Index: 18°   Visibility: 10mi
Dew Point: 11°   Wind: 9mph
Humidity: 74%   Direction: 50°NE
Pressure: 30.35"   Gusts: NA
Location:  37.1816°N, 106.262°W
Report Text: KALS 280452Z AUTO 05008KT 10SM CLR M08/M12 A3035 RMK AO2 SLP296 T10781117
Loading
Personal Weather Stations






























Interactive Weather Map New forecast layout! Learn more

10-Day Weather Forecast

Advertisements
Track Severe Weather on mobile